createdAt,value
2017-09-23T14:30:06.259Z,28.06
2017-09-23T14:32:52.707Z,28.49
2017-09-23T15:28:17.530Z,24.69
2017-09-23T15:30:45.046Z,24.44
2017-09-23T15:33:12.533Z,24.28
2017-09-23T15:35:40.124Z,24.52
2017-09-23T15:38:07.581Z,24.66
2017-09-23T15:40:35.092Z,24.77
2017-09-23T15:43:02.551Z,24.74
2017-09-23T15:45:30.800Z,24.50
2017-09-23T15:47:58.304Z,24.32
2017-09-23T15:50:25.798Z,24.25
2017-09-23T15:52:53.405Z,24.40
2017-09-23T15:55:20.876Z,24.45
2017-09-23T15:57:48.329Z,24.05
2017-09-23T16:00:15.832Z,23.93
2017-09-23T16:02:43.380Z,23.97
2017-09-23T16:05:11.083Z,23.56
2017-09-23T16:07:38.741Z,23.86
2017-09-23T16:10:06.220Z,23.99
2017-09-23T16:12:33.872Z,24.17
2017-09-23T16:15:01.339Z,24.27
2017-09-23T16:17:28.922Z,24.21
2017-09-23T16:19:56.396Z,24.26
2017-09-23T16:22:23.882Z,24.22
2017-09-23T16:24:51.636Z,24.07
2017-09-23T16:27:19.373Z,23.99
2017-09-23T16:29:46.866Z,23.87
2017-09-23T16:32:14.351Z,23.70
2017-09-23T16:34:41.917Z,23.78
2017-09-23T16:37:09.695Z,23.68
2017-09-23T16:39:37.240Z,23.65
2017-09-23T16:42:04.796Z,23.31
2017-09-23T16:44:32.280Z,23.43
2017-09-23T16:46:59.777Z,23.34
2017-09-23T16:49:27.874Z,23.29
2017-09-23T16:51:55.426Z,23.15
2017-09-23T16:54:22.977Z,23.05
2017-09-23T16:56:50.453Z,23.02
2017-09-23T16:59:17.960Z,23.04
2017-09-23T17:01:45.444Z,23.09
2017-09-23T17:04:13.175Z,23.11
2017-09-23T17:06:40.678Z,23.08
2017-09-23T17:09:08.403Z,23.05
2017-09-23T17:11:36.325Z,23.09
2017-09-23T17:14:03.782Z,23.03
2017-09-23T17:16:31.267Z,22.98
2017-09-23T17:18:59.246Z,22.90
2017-09-23T17:21:26.781Z,22.79
2017-09-23T17:23:54.257Z,22.71
2017-09-23T17:26:21.763Z,22.64
2017-09-23T17:28:49.221Z,22.57
2017-09-23T17:31:16.683Z,22.53
2017-09-23T17:33:44.187Z,22.37
2017-09-23T17:36:11.661Z,22.29
2017-09-23T17:38:39.450Z,22.10
2017-09-23T17:41:07.061Z,21.98
2017-09-23T17:43:34.627Z,21.83
2017-09-23T17:46:02.133Z,21.71
2017-09-23T17:48:29.687Z,21.61
2017-09-23T17:50:57.272Z,21.58
2017-09-23T17:53:24.847Z,21.52
2017-09-23T17:55:52.372Z,21.43
2017-09-23T17:58:20.146Z,21.37
2017-09-23T18:00:47.714Z,21.35
2017-09-23T18:03:15.288Z,21.33
2017-09-23T18:05:42.803Z,21.31
2017-09-23T18:08:10.305Z,21.29
2017-09-23T18:10:37.791Z,21.21
2017-09-23T18:13:05.436Z,21.21
2017-09-23T18:15:32.971Z,21.14
2017-09-23T18:18:00.463Z,21.07
2017-09-23T18:20:28.112Z,21.02
2017-09-23T18:22:55.613Z,20.84
2017-09-23T18:25:23.155Z,20.68
2017-09-23T18:27:50.631Z,20.60
2017-09-23T18:30:18.190Z,20.58
2017-09-23T18:32:45.712Z,20.46
2017-09-23T18:35:13.198Z,20.36
2017-09-23T18:37:40.788Z,20.20
2017-09-23T18:40:08.500Z,20.13
2017-09-23T18:42:36.025Z,20.16
2017-09-23T18:45:03.653Z,19.88
2017-09-23T18:47:31.229Z,20.07
2017-09-23T18:49:58.916Z,20.06
2017-09-23T18:52:26.388Z,20.10
2017-09-23T18:54:54.729Z,20.03
2017-09-23T18:57:22.411Z,19.95
2017-09-23T18:59:50.148Z,20.00
2017-09-23T19:02:17.630Z,19.79
2017-09-23T19:04:45.099Z,19.68
2017-09-23T19:07:12.712Z,19.65
2017-09-23T19:09:40.267Z,19.71
2017-09-23T19:12:07.855Z,19.73
2017-09-23T19:14:35.340Z,19.51
2017-09-23T19:17:02.880Z,19.62
2017-09-23T19:19:30.395Z,19.63
2017-09-23T19:21:57.903Z,19.63
2017-09-23T19:24:25.629Z,19.51
2017-09-23T19:26:53.739Z,19.25
2017-09-23T19:29:21.237Z,19.22
2017-09-23T19:31:48.763Z,19.67
2017-09-23T19:34:16.357Z,19.48
2017-09-23T19:36:43.879Z,19.44
2017-09-23T19:39:11.405Z,19.37
2017-09-23T19:41:39.168Z,19.27
2017-09-23T19:44:06.655Z,19.32
2017-09-23T19:46:34.314Z,19.39
2017-09-23T19:49:01.879Z,19.33
2017-09-23T19:51:33.538Z,19.18
2017-09-23T19:54:01.057Z,19.14
2017-09-23T19:56:28.530Z,19.12
2017-09-23T19:58:56.048Z,19.14
2017-09-23T20:01:23.726Z,19.05
2017-09-23T20:03:51.229Z,19.05
2017-09-23T20:06:18.861Z,19.05
2017-09-23T20:08:46.625Z,19.04
2017-09-23T20:11:14.246Z,19.02
2017-09-23T20:13:41.727Z,18.94
2017-09-23T20:16:09.221Z,18.88
2017-09-23T20:18:36.955Z,18.78
2017-09-23T20:21:05.335Z,18.71
2017-09-23T20:23:33.060Z,18.67
2017-09-23T20:26:00.750Z,18.57
2017-09-23T20:28:28.300Z,18.50
2017-09-23T20:30:55.797Z,18.45
2017-09-23T20:33:23.301Z,18.44
2017-09-23T20:35:50.975Z,18.46
2017-09-23T20:38:18.447Z,18.23
2017-09-23T20:40:46.215Z,18.01
2017-09-23T20:43:13.810Z,18.08
2017-09-23T20:45:41.564Z,18.09
2017-09-23T20:48:09.257Z,18.08
2017-09-23T20:50:36.758Z,18.04
2017-09-23T20:53:04.582Z,17.88
2017-09-23T20:55:32.556Z,17.92
2017-09-23T20:58:00.262Z,18.01
2017-09-23T21:00:27.740Z,18.05
2017-09-23T21:02:55.322Z,17.75
2017-09-23T21:05:23.008Z,17.46
2017-09-23T21:07:50.588Z,17.42
2017-09-23T21:10:18.227Z,17.38
2017-09-23T21:12:45.869Z,17.30
2017-09-23T21:15:13.341Z,17.37
2017-09-23T21:17:41.638Z,17.40
2017-09-23T21:20:09.136Z,17.46
2017-09-23T21:22:36.673Z,17.51
2017-09-23T21:25:04.413Z,17.55
2017-09-23T21:27:32.060Z,17.64
2017-09-23T21:29:59.776Z,17.70
2017-09-23T21:32:27.706Z,17.74
2017-09-23T21:34:55.206Z,17.64
2017-09-23T21:37:22.697Z,17.57
2017-09-23T21:39:50.442Z,17.65
2017-09-23T21:42:18.190Z,17.72
2017-09-23T21:44:45.749Z,17.71
2017-09-23T21:47:13.295Z,17.72
2017-09-23T21:49:40.887Z,17.67
2017-09-23T21:52:08.718Z,17.68
2017-09-23T21:54:36.183Z,17.66
2017-09-23T21:57:03.733Z,17.54
2017-09-23T21:59:31.244Z,17.56
2017-09-23T22:01:58.801Z,17.57
2017-09-23T22:04:26.292Z,17.58
2017-09-23T22:06:53.853Z,17.51
2017-09-23T22:09:21.390Z,17.50
2017-09-23T22:11:48.982Z,17.39
2017-09-23T22:14:18.500Z,17.36
2017-09-23T22:16:46.424Z,17.37
2017-09-23T22:19:14.218Z,17.26
2017-09-23T22:21:41.789Z,17.26
2017-09-23T22:24:09.442Z,17.23
2017-09-23T22:26:38.141Z,17.19
2017-09-23T22:29:06.708Z,17.15
2017-09-23T22:31:35.025Z,17.16
2017-09-23T22:34:02.597Z,17.13
2017-09-23T22:36:30.393Z,17.01
2017-09-23T22:38:59.242Z,16.75
2017-09-23T22:41:27.854Z,16.75
2017-09-23T22:43:56.465Z,16.71
2017-09-23T22:46:24.502Z,16.74
2017-09-23T22:48:52.331Z,16.77
2017-09-23T22:51:21.649Z,16.78
2017-09-23T22:53:50.170Z,16.61
2017-09-23T22:56:20.512Z,16.66
2017-09-23T22:58:48.488Z,16.64
2017-09-23T23:01:16.133Z,16.62
2017-09-23T23:03:44.121Z,16.67
2017-09-23T23:06:12.785Z,16.69
2017-09-23T23:08:40.732Z,16.61
2017-09-23T23:11:10.340Z,16.63
2017-09-23T23:13:39.150Z,16.61
2017-09-23T23:16:07.974Z,16.56
2017-09-23T23:18:37.435Z,16.60
2017-09-23T23:21:05.525Z,16.61
2017-09-23T23:23:33.108Z,16.48
2017-09-23T23:26:02.511Z,16.44
2017-09-23T23:28:30.076Z,16.34
2017-09-23T23:30:59.315Z,16.19
2017-09-23T23:33:26.987Z,16.14
2017-09-23T23:35:55.004Z,16.17
2017-09-23T23:38:22.811Z,16.18
2017-09-23T23:40:50.978Z,16.23
2017-09-23T23:43:19.457Z,16.24
2017-09-23T23:45:48.871Z,16.25
2017-09-23T23:48:16.838Z,16.16
2017-09-23T23:53:18.965Z,16.08
2017-09-23T23:55:46.835Z,16.09
2017-09-23T23:58:14.814Z,16.00
